Time;durP1;ratioP1;P1;durP2;ratioP2;P2;SDS_P1;SDS_P2;PMS_P1;PMS_P2;Temp;Humidity;BMP_temperature;BMP_pressure;BME280_temperature;BME280_humidity;BME280_pressure;Samples;Min_cycle;Max_cycle;Signal;HPM_P1;HPM_P2
2023/05/01 00:00:34;;;;;;;0.60;0.60;;;;;;;14.52;100.00;100094.25;5090673;28;20202;-73
2023/05/01 00:03:01;;;;;;;0.80;0.80;;;;;;;14.35;100.00;100071.63;5090630;28;20198;-73
2023/05/01 00:05:28;;;;;;;1.25;1.15;;;;;;;14.51;100.00;100092.50;5090489;28;20209;-73
2023/05/01 00:07:56;;;;;;;0.50;0.50;;;;;;;14.58;100.00;100087.28;5090149;28;20190;-73
2023/05/01 00:10:23;;;;;;;0.60;0.60;;;;;;;14.06;100.00;100008.16;5090359;28;20230;-73
2023/05/01 00:12:49;;;;;;;0.82;0.82;;;;;;;14.56;100.00;100101.16;5088656;28;20210;-74
2023/05/01 00:15:17;;;;;;;0.70;0.70;;;;;;;14.44;100.00;100081.19;5090890;28;20228;-73
2023/05/01 00:17:43;;;;;;;0.60;0.60;;;;;;;14.58;100.00;100110.75;5089674;28;20197;-73
2023/05/01 00:20:11;;;;;;;0.70;0.70;;;;;;;14.54;100.00;100097.72;5090497;28;20271;-74
2023/05/01 00:22:38;;;;;;;0.70;0.70;;;;;;;14.46;100.00;100094.22;5090017;28;20198;-73
2023/05/01 00:25:07;;;;;;;0.60;0.60;;;;;;;14.70;100.00;100095.06;5089431;28;20198;-73
2023/05/01 00:27:33;;;;;;;0.60;0.60;;;;;;;14.65;100.00;100085.53;5092609;28;20304;-73
2023/05/01 00:30:00;;;;;;;0.80;0.80;;;;;;;14.46;100.00;100055.97;5094133;28;20234;-73
2023/05/01 00:32:27;;;;;;;0.60;0.60;;;;;;;14.61;100.00;100091.63;5094458;28;20197;-73
2023/05/01 00:34:56;;;;;;;0.80;0.80;;;;;;;14.59;100.00;100098.59;5094181;28;20205;-73
2023/05/01 00:37:23;;;;;;;0.80;0.80;;;;;;;14.62;100.00;100098.56;5094209;28;20205;-73
2023/05/01 00:39:50;;;;;;;0.70;0.70;;;;;;;14.67;100.00;100094.19;5094155;28;20190;-73
2023/05/01 00:42:18;;;;;;;0.63;0.63;;;;;;;14.61;100.00;100083.78;5094347;28;20207;-73
2023/05/01 00:44:45;;;;;;;0.50;0.50;;;;;;;14.54;100.00;100089.88;5094000;28;20657;-73
2023/05/01 00:47:11;;;;;;;0.60;0.60;;;;;;;14.53;100.00;100089.00;5094334;28;20228;-73
2023/05/01 00:49:40;;;;;;;0.70;0.70;;;;;;;14.47;100.00;100093.38;5094070;28;20221;-73
2023/05/01 00:52:08;;;;;;;0.70;0.70;;;;;;;14.43;100.00;100089.00;5093832;28;20201;-73
2023/05/01 00:54:35;;;;;;;0.70;0.70;;;;;;;14.43;100.00;100089.88;5074919;28;20637;-73
2023/05/01 00:57:02;;;;;;;0.70;0.70;;;;;;;14.38;100.00;100092.50;5094121;28;20682;-73
2023/05/01 00:59:30;;;;;;;0.70;0.70;;;;;;;14.37;100.00;100093.38;5093956;28;20286;-73
2023/05/01 01:01:57;;;;;;;0.60;0.60;;;;;;;14.28;100.00;100085.50;5093692;28;20190;-73
2023/05/01 01:04:24;;;;;;;1.58;1.45;;;;;;;14.28;100.00;100093.34;5093897;28;20293;-73
2023/05/01 01:06:57;;;;;;;0.65;0.65;;;;;;;14.37;100.00;100096.00;5094024;28;20194;-73
2023/05/01 01:09:37;;;;;;;0.70;0.70;;;;;;;14.20;100.00;100076.81;5093615;28;20229;-73
2023/05/01 01:12:15;;;;;;;0.60;0.60;;;;;;;14.36;100.00;100103.81;5093866;28;20279;-73
2023/05/01 01:14:50;;;;;;;0.70;0.70;;;;;;;14.31;100.00;100108.97;5093893;28;20656;-73
2023/05/01 01:17:23;;;;;;;0.60;0.60;;;;;;;14.30;100.00;100112.44;5093355;28;20235;-73
2023/05/01 01:20:29;;;;;;;1.38;1.20;;;;;;;14.29;100.00;100113.34;5093315;28;20263;-73
2023/05/01 01:23:11;;;;;;;0.70;0.70;;;;;;;14.10;100.00;100101.16;5093323;28;20287;-73
2023/05/01 01:26:11;;;;;;;0.70;0.70;;;;;;;14.21;100.00;100130.72;5093441;28;20206;-73
2023/05/01 01:29:21;;;;;;;0.70;0.70;;;;;;;14.13;100.00;100122.00;5093410;28;20199;-73
2023/05/01 01:31:58;;;;;;;0.70;0.70;;;;;;;13.94;100.00;100099.41;5050655;28;20196;-73
2023/05/01 01:34:33;;;;;;;0.70;0.70;;;;;;;14.11;100.00;100139.41;5042131;28;20317;-72
2023/05/01 01:37:04;;;;;;;0.60;0.60;;;;;;;14.08;100.00;100147.22;5017467;28;20223;-71
2023/05/01 01:39:43;;;;;;;0.70;0.70;;;;;;;13.68;100.00;100069.78;5050973;28;20296;-73
2023/05/01 01:42:16;;;;;;;0.80;0.80;;;;;;;14.06;100.00;100158.47;5050977;28;20333;-72
2023/05/01 01:44:49;;;;;;;0.80;0.80;;;;;;;14.00;100.00;100150.66;5050761;28;20203;-73
2023/05/01 01:47:17;;;;;;;0.70;0.70;;;;;;;13.93;100.00;100144.56;5050321;28;20781;-72
2023/05/01 01:49:50;;;;;;;0.70;0.70;;;;;;;13.97;100.00;100148.94;5050620;28;20222;-72
2023/05/01 01:52:18;;;;;;;0.68;0.68;;;;;;;13.82;100.00;100146.28;5043487;28;20203;-72
2023/05/01 01:54:51;;;;;;;0.60;0.60;;;;;;;13.76;100.00;100149.75;5050141;28;20722;-72
2023/05/01 01:57:20;;;;;;;0.60;0.60;;;;;;;13.69;100.00;100144.50;5050563;28;20207;-72
2023/05/01 01:59:50;;;;;;;0.80;0.80;;;;;;;13.23;100.00;100068.81;5032017;28;20208;-73
2023/05/01 02:02:20;;;;;;;0.93;0.93;;;;;;;13.65;100.00;100147.97;5049988;28;20273;-72
2023/05/01 02:04:49;;;;;;;0.70;0.70;;;;;;;13.54;100.00;100153.13;5050362;28;20278;-73
2023/05/01 02:07:18;;;;;;;0.60;0.60;;;;;;;13.60;100.00;100149.66;5065586;28;20206;-73
2023/05/01 02:09:46;;;;;;;0.60;0.60;;;;;;;13.56;100.00;100159.19;5092594;28;20704;-73
2023/05/01 02:12:15;;;;;;;0.60;0.60;;;;;;;13.49;100.00;100162.66;5092646;28;20221;-73
2023/05/01 02:14:42;;;;;;;0.70;0.70;;;;;;;13.54;100.00;100160.94;5092838;28;20681;-73
2023/05/01 02:17:10;;;;;;;0.60;0.60;;;;;;;13.45;100.00;100150.47;5092444;28;20198;-73
2023/05/01 02:19:39;;;;;;;0.70;0.70;;;;;;;13.48;100.00;100155.72;5092109;28;20217;-73
2023/05/01 02:22:10;;;;;;;0.60;0.60;;;;;;;13.51;100.00;100154.84;5092044;28;20226;-73
2023/05/01 02:24:38;;;;;;;0.70;0.70;;;;;;;13.22;100.00;100120.84;5092528;28;20244;-73
2023/05/01 02:27:11;;;;;;;2.17;1.33;;;;;;;13.61;100.00;100170.53;5092469;28;20654;-74
2023/05/01 02:29:38;;;;;;;1.80;1.70;;;;;;;13.48;100.00;100176.56;5091732;28;20233;-74
2023/05/01 02:32:05;;;;;;;0.80;0.80;;;;;;;13.42;100.00;100155.66;5091885;28;20645;-73
2023/05/01 02:34:34;;;;;;;0.60;0.60;;;;;;;13.47;100.00;100163.50;5091977;28;20206;-73
2023/05/01 02:37:01;;;;;;;0.73;0.73;;;;;;;13.55;100.00;100177.44;5091641;28;20194;-73
2023/05/01 02:39:30;;;;;;;0.70;0.70;;;;;;;13.63;100.00;100184.41;5092028;28;20566;-73
2023/05/01 02:41:58;;;;;;;0.70;0.70;;;;;;;13.59;100.00;100179.22;5091951;28;20206;-73
2023/05/01 02:44:27;;;;;;;0.68;0.68;;;;;;;13.70;100.00;100193.13;5040237;28;20194;-73
2023/05/01 02:46:56;;;;;;;0.65;0.65;;;;;;;13.72;100.00;100191.41;5052752;28;20237;-73
2023/05/01 02:49:23;;;;;;;0.70;0.70;;;;;;;13.68;100.00;100189.66;5087876;28;20194;-73
2023/05/01 02:51:50;;;;;;;0.70;0.70;;;;;;;13.56;100.00;100172.22;5091351;28;20205;-74
2023/05/01 02:54:17;;;;;;;0.70;0.70;;;;;;;13.48;100.00;100166.13;5091446;28;20201;-73
2023/05/01 02:56:46;;;;;;;0.80;0.80;;;;;;;13.55;100.00;100178.31;5092206;28;20194;-73
2023/05/01 02:59:12;;;;;;;0.70;0.70;;;;;;;13.47;100.00;100168.72;5091875;28;20203;-73
2023/05/01 03:01:39;;;;;;;0.70;0.70;;;;;;;13.57;100.00;100189.59;5085259;28;20209;-73
2023/05/01 03:04:06;;;;;;;0.70;0.70;;;;;;;13.62;100.00;100205.28;5056205;28;20222;-73
2023/05/01 03:06:33;;;;;;;0.70;0.70;;;;;;;13.44;100.00;100176.53;5091890;28;20606;-73
2023/05/01 03:09:00;;;;;;;0.70;0.70;;;;;;;13.60;100.00;100202.66;5091502;28;20194;-73
2023/05/01 03:11:27;;;;;;;0.70;0.70;;;;;;;13.59;100.00;100210.47;5090897;28;20222;-73
2023/05/01 03:13:55;;;;;;;0.60;0.60;;;;;;;13.61;100.00;100193.09;5091499;28;20205;-73
2023/05/01 03:16:22;;;;;;;0.70;0.70;;;;;;;13.63;100.00;100207.00;5056356;28;20198;-73
2023/05/01 03:18:48;;;;;;;0.75;0.75;;;;;;;13.62;100.00;100216.56;5090850;28;20625;-74
2023/05/01 03:21:15;;;;;;;0.60;0.60;;;;;;;13.64;100.00;100219.16;5090343;28;20559;-73
2023/05/01 03:23:42;;;;;;;0.60;0.60;;;;;;;13.65;100.00;100218.31;5091044;28;20210;-73
2023/05/01 03:26:09;;;;;;;0.70;0.70;;;;;;;13.70;100.00;100224.38;5091463;28;20206;-73
2023/05/01 03:28:35;;;;;;;0.70;0.70;;;;;;;13.72;100.00;100214.88;5091241;28;20259;-73
2023/05/01 03:31:04;;;;;;;0.70;0.70;;;;;;;13.78;100.00;100210.53;5071433;28;20886;-73
2023/05/01 03:33:31;;;;;;;0.60;0.60;;;;;;;13.78;100.00;100225.31;5090792;28;20213;-73
2023/05/01 03:36:02;;;;;;;0.70;0.70;;;;;;;13.83;100.00;100234.03;5091271;28;20221;-73
2023/05/01 03:38:30;;;;;;;0.70;0.70;;;;;;;13.74;100.00;100231.38;5090217;28;20205;-73
2023/05/01 03:40:57;;;;;;;0.60;0.60;;;;;;;13.72;100.00;100238.31;5090818;28;20656;-73
2023/05/01 03:43:24;;;;;;;0.60;0.60;;;;;;;13.64;100.00;100234.78;5090974;28;20205;-73
2023/05/01 03:45:51;;;;;;;0.70;0.70;;;;;;;13.66;100.00;100233.09;5090709;28;20234;-73
2023/05/01 03:48:19;;;;;;;0.60;0.60;;;;;;;13.72;100.00;100240.94;5090772;28;20259;-73
2023/05/01 03:50:46;;;;;;;0.70;0.70;;;;;;;13.55;100.00;100221.72;5090300;28;20294;-73
2023/05/01 03:53:13;;;;;;;0.60;0.60;;;;;;;13.74;100.00;100247.00;5090725;28;20190;-73
2023/05/01 03:55:40;;;;;;;0.60;0.60;;;;;;;13.78;100.00;100248.75;5086424;28;20207;-73
2023/05/01 03:58:07;;;;;;;0.60;0.60;;;;;;;13.74;100.00;100236.56;5085441;28;20271;-73
2023/05/01 04:00:34;;;;;;;0.65;0.65;;;;;;;13.85;100.00;100255.75;5090484;28;20206;-73
2023/05/01 04:03:00;;;;;;;0.80;0.80;;;;;;;14.09;100.00;100261.06;5090846;28;20194;-73
2023/05/01 04:05:29;;;;;;;0.60;0.60;;;;;;;14.80;100.00;100253.41;5089642;28;20201;-74
2023/05/01 04:07:56;;;;;;;0.52;0.52;;;;;;;15.14;100.00;100242.97;5090751;28;20202;-74
2023/05/01 04:10:22;;;;;;;0.63;0.63;;;;;;;15.28;100.00;100262.97;5061039;28;20722;-74
2023/05/01 04:12:49;;;;;;;0.60;0.60;;;;;;;15.24;100.00;100256.00;5090769;28;20186;-74
2023/05/01 04:15:16;;;;;;;0.70;0.70;;;;;;;15.18;100.00;100235.13;5089983;28;20194;-73
2023/05/01 04:17:43;;;;;;;0.60;0.60;;;;;;;15.75;100.00;100265.53;5089570;28;20570;-73
2023/05/01 04:20:11;;;;;;;0.60;0.60;;;;;;;16.44;100.00;100252.16;5089477;28;20295;-73
2023/05/01 04:22:39;;;;;;;0.60;0.60;;;;;;;17.53;100.00;100266.97;5090077;28;20297;-73
2023/05/01 04:25:07;;;;;;;0.93;0.93;;;;;;;18.57;100.00;100286.75;5082376;28;20584;-73
2023/05/01 04:27:34;;;;;;;0.60;0.60;;;;;;;19.63;93.34;100292.91;5089919;28;20288;-73
2023/05/01 04:30:01;;;;;;;0.60;0.60;;;;;;;20.28;86.86;100289.03;5089872;28;20197;-73
2023/05/01 04:32:28;;;;;;;0.60;0.60;;;;;;;20.98;76.77;100295.31;5054576;28;20220;-73
2023/05/01 04:34:54;;;;;;;0.65;0.65;;;;;;;21.41;73.84;100303.06;5041755;28;20628;-73
2023/05/01 04:37:21;;;;;;;0.60;0.60;;;;;;;22.03;67.24;100298.78;5072260;28;20206;-73
2023/05/01 04:39:49;;;;;;;0.60;0.60;;;;;;;22.64;62.84;100308.41;5090265;28;20199;-73
2023/05/01 04:42:16;;;;;;;0.50;0.50;;;;;;;23.10;60.07;100320.22;5071103;28;20198;-73
2023/05/01 04:44:43;;;;;;;0.60;0.60;;;;;;;22.82;60.01;100327.28;5090387;28;20198;-73
2023/05/01 04:47:10;;;;;;;0.60;0.60;;;;;;;22.89;58.76;100335.00;5053948;28;20222;-73
2023/05/01 04:49:36;;;;;;;0.50;0.50;;;;;;;21.76;60.29;100310.94;5067026;28;20190;-74
2023/05/01 04:52:03;;;;;;;1.23;0.73;;;;;;;21.14;65.61;100341.56;5062920;28;20223;-73
2023/05/01 04:54:30;;;;;;;0.75;0.75;;;;;;;21.73;64.65;100345.31;5089001;28;20259;-73
2023/05/01 04:56:58;;;;;;;0.60;0.60;;;;;;;21.64;62.43;100340.31;5080917;28;20217;-72
2023/05/01 04:59:25;;;;;;;0.50;0.50;;;;;;;21.33;64.13;100320.03;5089717;28;20213;-73
2023/05/01 05:01:52;;;;;;;1.20;1.17;;;;;;;22.39;61.93;100344.41;5089511;28;20640;-73
2023/05/01 05:04:19;;;;;;;0.68;0.68;;;;;;;22.89;59.42;100345.56;5089420;28;20674;-72
2023/05/01 05:06:45;;;;;;;0.50;0.50;;;;;;;23.11;58.79;100336.06;5081637;28;20202;-74
2023/05/01 05:09:12;;;;;;;0.60;0.60;;;;;;;22.86;57.54;100348.31;5087239;28;20217;-72
2023/05/01 05:11:40;;;;;;;0.70;0.70;;;;;;;22.77;57.78;100348.59;5082633;28;20682;-72
2023/05/01 05:14:08;;;;;;;0.70;0.70;;;;;;;23.91;55.62;100351.00;5087880;28;20251;-73
2023/05/01 05:16:35;;;;;;;0.80;0.80;;;;;;;23.23;56.67;100355.94;5092457;28;20194;-72
2023/05/01 05:19:02;;;;;;;0.60;0.60;;;;;;;23.40;56.70;100360.69;5070464;28;20223;-73
2023/05/01 05:21:28;;;;;;;0.70;0.70;;;;;;;23.41;56.52;100355.38;5086085;28;20603;-70
2023/05/01 05:23:55;;;;;;;0.60;0.60;;;;;;;23.57;56.14;100356.59;5091715;28;20676;-70
2023/05/01 05:26:23;;;;;;;0.60;0.60;;;;;;;22.80;57.58;100361.72;5093104;28;20206;-70
2023/05/01 05:28:50;;;;;;;0.60;0.60;;;;;;;22.27;59.76;100362.38;5093049;28;20905;-69
2023/05/01 05:31:18;;;;;;;0.70;0.70;;;;;;;20.94;67.26;100364.84;5093087;28;20383;-68
2023/05/01 05:33:45;;;;;;;0.60;0.60;;;;;;;19.46;84.74;100370.41;5093389;28;20222;-70
2023/05/01 05:36:12;;;;;;;0.80;0.80;;;;;;;19.16;84.47;100380.47;5093453;28;20206;-68
2023/05/01 05:38:39;;;;;;;0.60;0.60;;;;;;;18.46;89.20;100375.28;5092878;28;20198;-68
2023/05/01 05:41:06;;;;;;;0.60;0.60;;;;;;;18.41;90.79;100381.50;5057703;28;20206;-71
2023/05/01 05:43:32;;;;;;;0.90;0.90;;;;;;;18.37;91.97;100382.41;5090855;28;20194;-72
2023/05/01 05:46:00;;;;;;;1.10;1.10;;;;;;;18.46;91.93;100379.66;5086634;28;20686;-73
2023/05/01 05:48:28;;;;;;;0.70;0.70;;;;;;;18.77;91.09;100375.78;5070354;28;20629;-72
2023/05/01 05:50:55;;;;;;;0.77;0.77;;;;;;;18.26;94.12;100356.28;5072728;28;20567;-72
2023/05/01 05:53:22;;;;;;;0.60;0.60;;;;;;;18.68;91.31;100347.03;5077467;28;20205;-73
2023/05/01 05:55:49;;;;;;;0.60;0.60;;;;;;;18.99;89.14;100374.59;5078428;28;20305;-74
2023/05/01 05:58:18;;;;;;;0.70;0.70;;;;;;;18.98;88.55;100374.63;5083342;28;20259;-73
2023/05/01 06:00:47;;;;;;;0.60;0.60;;;;;;;19.12;86.51;100383.19;5082804;28;20202;-72
2023/05/01 06:03:13;;;;;;;0.60;0.60;;;;;;;19.00;88.50;100388.59;5075402;28;20233;-71
2023/05/01 06:05:42;;;;;;;0.60;0.60;;;;;;;19.12;100.00;100389.28;5082602;28;20203;-73
2023/05/01 06:08:10;;;;;;;0.70;0.70;;;;;;;18.96;90.51;100384.28;5084029;28;20260;-73
2023/05/01 06:10:38;;;;;;;1.42;1.42;;;;;;;19.29;89.25;100392.56;5091950;28;20317;-74
2023/05/01 06:13:05;;;;;;;0.60;0.60;;;;;;;19.63;87.06;100403.41;5082224;28;20210;-73
2023/05/01 06:15:32;;;;;;;0.63;0.63;;;;;;;19.54;87.78;100402.72;5089599;28;20209;-73
2023/05/01 06:17:59;;;;;;;0.60;0.60;;;;;;;19.18;89.26;100404.13;5073048;28;20228;-73
2023/05/01 06:20:26;;;;;;;0.60;0.60;;;;;;;19.04;90.21;100385.94;5089496;28;20195;-73
2023/05/01 06:22:54;;;;;;;0.60;0.60;;;;;;;19.27;90.06;100409.22;5083852;28;20203;-73
2023/05/01 06:25:21;;;;;;;0.70;0.70;;;;;;;19.01;90.26;100382.47;5080992;28;20830;-72
2023/05/01 06:27:48;;;;;;;0.57;0.57;;;;;;;19.06;92.77;100404.28;5086887;28;20195;-73
2023/05/01 06:30:15;;;;;;;0.70;0.70;;;;;;;19.25;91.58;100419.78;5080644;28;20750;-73
2023/05/01 06:32:42;;;;;;;0.90;0.90;;;;;;;19.35;89.67;100422.25;5076601;28;20234;-73
2023/05/01 06:35:10;;;;;;;0.70;0.70;;;;;;;19.26;87.47;100408.34;5091758;28;20214;-73
2023/05/01 06:37:37;;;;;;;0.60;0.60;;;;;;;19.09;88.27;100420.00;5054595;28;20723;-72
2023/05/01 06:40:06;;;;;;;0.60;0.60;;;;;;;19.52;89.92;100415.88;5072394;28;20198;-74
2023/05/01 06:42:33;;;;;;;0.60;0.60;;;;;;;19.17;100.00;100368.19;5050315;28;20199;-72
2023/05/01 06:45:00;;;;;;;0.70;0.70;;;;;;;19.57;92.86;100402.66;5092160;28;20678;-70
2023/05/01 06:47:27;;;;;;;0.70;0.70;;;;;;;20.03;87.16;100419.38;5088445;28;20705;-72
2023/05/01 06:49:54;;;;;;;0.65;0.65;;;;;;;20.23;84.01;100406.72;5090077;28;20213;-72
2023/05/01 06:52:20;;;;;;;0.90;0.90;;;;;;;20.31;84.61;100426.78;5086625;28;20591;-73
2023/05/01 06:54:47;;;;;;;0.70;0.70;;;;;;;19.57;88.44;100403.53;5091280;28;20221;-73
2023/05/01 06:57:15;;;;;;;0.80;0.80;;;;;;;19.24;95.15;100415.41;5091329;28;20613;-73
2023/05/01 06:59:43;;;;;;;0.80;0.80;;;;;;;19.49;92.85;100428.22;5090124;28;20198;-73
2023/05/01 07:02:10;;;;;;;0.60;0.60;;;;;;;19.56;92.95;100424.59;5075783;28;20195;-72
2023/05/01 07:04:37;;;;;;;0.70;0.70;;;;;;;20.00;90.25;100424.72;5077154;28;20711;-69
2023/05/01 07:07:03;;;;;;;0.80;0.80;;;;;;;20.07;88.57;100431.59;5080191;28;20247;-70
2023/05/01 07:09:30;;;;;;;1.63;1.60;;;;;;;19.80;91.13;100442.59;5080803;28;20229;-71
2023/05/01 07:11:58;;;;;;;0.68;0.68;;;;;;;19.23;95.84;100455.72;5079899;28;20218;-71
2023/05/01 07:14:26;;;;;;;0.60;0.60;;;;;;;19.04;100.00;100453.38;5083645;28;20211;-71
2023/05/01 07:16:53;;;;;;;1.50;1.50;;;;;;;18.79;100.00;100458.09;5075251;28;20198;-69
2023/05/01 07:19:20;;;;;;;0.60;0.60;;;;;;;19.14;100.00;100461.13;5061044;28;20203;-71
2023/05/01 07:21:46;;;;;;;0.70;0.70;;;;;;;19.38;99.54;100451.13;5081552;28;20199;-71
2023/05/01 07:24:13;;;;;;;0.70;0.70;;;;;;;19.62;97.46;100433.25;5080633;28;20213;-70
2023/05/01 07:26:40;;;;;;;0.50;0.50;;;;;;;19.75;96.74;100476.91;5089253;28;20209;-70
2023/05/01 07:29:07;;;;;;;0.80;0.80;;;;;;;19.98;92.95;100484.41;5051756;28;20210;-71
2023/05/01 07:31:35;;;;;;;0.60;0.60;;;;;;;20.02;92.35;100485.22;5054179;28;20279;-73
2023/05/01 07:34:02;;;;;;;0.60;0.60;;;;;;;19.79;96.99;100496.16;5086472;28;20217;-73
2023/05/01 07:36:29;;;;;;;0.70;0.70;;;;;;;19.27;100.00;100499.50;5085586;28;20197;-73
2023/05/01 07:38:56;;;;;;;0.65;0.65;;;;;;;19.67;100.00;100493.69;5082274;28;20587;-73
2023/05/01 07:41:24;;;;;;;0.60;0.60;;;;;;;19.39;100.00;100450.25;5081086;28;20264;-73
2023/05/01 07:43:50;;;;;;;0.70;0.70;;;;;;;19.41;97.00;100511.56;5086273;28;20198;-73
2023/05/01 07:46:17;;;;;;;0.80;0.80;;;;;;;19.30;97.91;100514.34;5082062;28;20631;-73
2023/05/01 07:48:45;;;;;;;0.60;0.60;;;;;;;19.48;99.49;100513.25;5076510;28;20618;-72
2023/05/01 07:51:12;;;;;;;0.60;0.60;;;;;;;19.20;100.00;100513.63;5083422;28;20226;-73
2023/05/01 07:53:41;;;;;;;0.60;0.60;;;;;;;19.40;98.36;100500.22;5053323;28;20194;-73
2023/05/01 07:56:08;;;;;;;0.82;0.82;;;;;;;19.40;97.29;100509.84;5082378;28;20290;-72
2023/05/01 07:58:36;;;;;;;0.60;0.60;;;;;;;19.02;93.71;100503.34;5090506;28;20198;-72
2023/05/01 08:01:03;;;;;;;0.70;0.70;;;;;;;18.72;94.38;100514.22;5086015;28;20198;-72
2023/05/01 08:03:31;;;;;;;1.60;1.50;;;;;;;19.09;93.37;100519.88;5053926;28;20202;-73
2023/05/01 08:05:59;;;;;;;0.70;0.70;;;;;;;19.33;93.93;100513.47;5087785;28;20198;-74
2023/05/01 08:08:26;;;;;;;0.90;0.90;;;;;;;19.08;90.94;100513.78;5089698;28;20226;-74
2023/05/01 08:10:55;;;;;;;0.65;0.65;;;;;;;19.33;91.37;100520.44;5083250;28;20203;-73
2023/05/01 08:13:21;;;;;;;0.55;0.55;;;;;;;19.04;88.24;100517.34;5088681;28;20260;-74
2023/05/01 08:15:48;;;;;;;0.75;0.75;;;;;;;19.14;86.04;100518.09;5090374;28;20680;-74
2023/05/01 08:18:19;;;;;;;0.60;0.60;;;;;;;19.07;85.31;100521.69;5090350;28;20229;-74
2023/05/01 08:20:46;;;;;;;1.25;1.15;;;;;;;19.07;82.00;100514.66;5090226;28;20190;-74
2023/05/01 08:23:15;;;;;;;0.60;0.60;;;;;;;19.14;83.69;100518.97;5089950;28;20759;-74
2023/05/01 08:25:42;;;;;;;0.60;0.60;;;;;;;19.12;84.23;100515.47;5089910;28;20224;-74
2023/05/01 08:28:09;;;;;;;0.65;0.65;;;;;;;19.38;81.37;100528.28;5090171;28;20198;-73
2023/05/01 08:30:36;;;;;;;0.60;0.60;;;;;;;19.52;79.83;100510.56;5090433;28;20202;-74
2023/05/01 08:33:03;;;;;;;0.55;0.55;;;;;;;19.70;79.41;100535.72;5090053;28;20705;-73
2023/05/01 08:35:30;;;;;;;0.60;0.60;;;;;;;19.93;77.32;100532.75;5090311;28;20233;-73
2023/05/01 08:37:57;;;;;;;0.60;0.60;;;;;;;19.89;74.17;100529.31;5090231;28;20198;-73
2023/05/01 08:40:26;;;;;;;0.60;0.60;;;;;;;20.30;74.97;100527.78;5054894;28;20197;-74
2023/05/01 08:42:54;;;;;;;0.70;0.70;;;;;;;20.40;71.80;100529.38;5090177;28;20198;-73
2023/05/01 08:45:24;;;;;;;0.60;0.60;;;;;;;20.65;71.83;100533.28;5090222;28;20236;-74
2023/05/01 08:47:54;;;;;;;0.60;0.60;;;;;;;20.75;73.80;100529.56;5092000;28;20615;-73
2023/05/01 08:50:22;;;;;;;0.50;0.50;;;;;;;20.62;75.06;100526.28;5094245;28;20554;-74
2023/05/01 08:52:53;;;;;;;0.50;0.50;;;;;;;20.64;73.07;100519.25;5094060;28;20309;-74
2023/05/01 08:55:21;;;;;;;0.68;0.68;;;;;;;20.59;70.11;100531.63;5094407;28;20198;-74
2023/05/01 08:57:51;;;;;;;0.70;0.70;;;;;;;20.77;70.01;100519.84;5093206;28;20194;-73
2023/05/01 09:00:19;;;;;;;0.57;0.57;;;;;;;20.63;65.89;100511.34;5086934;28;20190;-76
2023/05/01 09:02:47;;;;;;;0.50;0.50;;;;;;;20.65;64.24;100522.75;5091563;28;20213;-73
2023/05/01 09:05:16;;;;;;;0.60;0.60;;;;;;;20.75;64.23;100512.00;5091837;28;20233;-74
2023/05/01 09:07:44;;;;;;;0.70;0.70;;;;;;;20.91;63.55;100515.19;5086436;28;20622;-73
2023/05/01 09:10:12;;;;;;;0.60;0.60;;;;;;;20.72;64.06;100482.19;5057816;28;20206;-75
2023/05/01 09:12:40;;;;;;;0.70;0.70;;;;;;;21.04;64.28;100511.41;5074918;28;20226;-73
2023/05/01 09:15:10;;;;;;;0.60;0.60;;;;;;;20.98;61.45;100516.78;5091058;28;20198;-72
2023/05/01 09:17:36;;;;;;;0.60;0.60;;;;;;;20.97;62.52;100514.22;5057162;28;20225;-73
2023/05/01 09:20:04;;;;;;;0.63;0.63;;;;;;;20.82;61.57;100518.03;5092931;28;20246;-68
2023/05/01 09:22:33;;;;;;;0.70;0.70;;;;;;;20.87;61.55;100517.94;5088910;28;20202;-74
2023/05/01 09:25:00;;;;;;;0.60;0.60;;;;;;;20.77;61.43;100504.03;5089976;28;20214;-68
2023/05/01 09:27:27;;;;;;;0.60;0.60;;;;;;;21.07;60.75;100518.38;5089653;28;20206;-73
2023/05/01 09:29:54;;;;;;;0.60;0.60;;;;;;;21.39;59.53;100521.25;5072719;28;20207;-73
2023/05/01 09:32:26;;;;;;;0.80;0.80;;;;;;;21.70;57.25;100522.28;5091143;28;20226;-73
2023/05/01 09:34:55;;;;;;;0.60;0.60;;;;;;;21.54;56.10;100504.19;5073781;28;20608;-72
2023/05/01 09:37:27;;;;;;;0.70;0.70;;;;;;;21.55;54.30;100513.81;5091109;28;20198;-68
2023/05/01 09:40:05;;;;;;;0.50;0.50;;;;;;;21.73;53.68;100506.34;5092546;28;20984;-68
2023/05/01 09:42:33;;;;;;;0.60;0.60;;;;;;;21.45;54.36;100520.22;5092862;28;20206;-71
2023/05/01 09:45:00;;;;;;;0.55;0.55;;;;;;;21.67;53.65;100519.72;5092600;28;20194;-73
2023/05/01 09:47:29;;;;;;;0.60;0.60;;;;;;;21.86;52.96;100509.59;5084552;28;20217;-71
2023/05/01 09:49:58;;;;;;;0.80;0.80;;;;;;;21.70;52.67;100505.56;5092737;28;20739;-74
2023/05/01 09:52:26;;;;;;;0.55;0.55;;;;;;;21.50;53.47;100511.31;5084112;28;20268;-67
2023/05/01 09:55:12;;;;;;;0.52;0.52;;;;;;;21.84;52.85;100507.88;5092688;28;20209;-71
2023/05/01 09:57:39;;;;;;;0.50;0.50;;;;;;;21.62;51.77;100518.94;5091786;28;20206;-71
2023/05/01 10:00:07;;;;;;;0.60;0.60;;;;;;;21.65;51.94;100512.75;5091835;28;20618;-70
2023/05/01 10:02:36;;;;;;;0.60;0.60;;;;;;;21.76;52.29;100505.41;5077804;28;20202;-70
2023/05/01 10:05:03;;;;;;;0.60;0.60;;;;;;;21.71;51.08;100502.91;5092067;28;20198;-70
2023/05/01 10:07:30;;;;;;;0.60;0.60;;;;;;;21.54;51.23;100505.06;5072381;28;20266;-71
2023/05/01 10:09:57;;;;;;;0.70;0.70;;;;;;;21.29;51.95;100503.00;5092478;28;20206;-70
2023/05/01 10:12:25;;;;;;;0.60;0.60;;;;;;;21.70;52.03;100501.16;5092041;28;20693;-70
2023/05/01 10:14:53;;;;;;;4.40;2.00;;;;;;;21.59;51.36;100491.75;5092154;28;20225;-71
2023/05/01 10:17:20;;;;;;;0.60;0.60;;;;;;;21.69;50.96;100499.41;5091844;28;20293;-70
2023/05/01 10:19:49;;;;;;;0.60;0.60;;;;;;;21.96;50.75;100505.84;5092050;28;20302;-71
2023/05/01 10:22:16;;;;;;;0.60;0.60;;;;;;;22.02;51.73;100510.97;5079278;28;20208;-69
2023/05/01 10:24:44;;;;;;;0.60;0.60;;;;;;;22.08;50.60;100502.88;5086667;28;20202;-72
2023/05/01 10:27:12;;;;;;;0.75;0.75;;;;;;;21.79;49.66;100484.25;5085776;28;20687;-72
2023/05/01 10:29:40;;;;;;;0.60;0.60;;;;;;;22.03;51.23;100499.50;5088429;28;20280;-72
2023/05/01 10:32:08;;;;;;;1.40;1.40;;;;;;;22.15;51.08;100504.47;5089739;28;20233;-72
2023/05/01 10:34:38;;;;;;;0.65;0.65;;;;;;;22.52;50.54;100492.91;5089929;28;20209;-71
2023/05/01 10:37:12;;;;;;;0.60;0.60;;;;;;;22.59;50.54;100500.66;5088020;28;20202;-71
2023/05/01 10:39:39;;;;;;;0.70;0.70;;;;;;;22.40;49.68;100498.56;5082978;28;20350;-72
2023/05/01 10:42:09;;;;;;;0.60;0.60;;;;;;;22.72;49.06;100499.41;5088061;28;20626;-72
2023/05/01 10:44:37;;;;;;;0.70;0.70;;;;;;;22.53;49.55;100492.91;5090613;28;20221;-71
2023/05/01 10:47:49;;;;;;;0.60;0.60;;;;;;;22.46;49.59;100501.03;5091112;28;20226;-72
2023/05/01 10:50:16;;;;;;;0.63;0.63;;;;;;;22.32;48.51;100489.97;5002567;28;20209;-72
2023/05/01 10:53:18;;;;;;;0.65;0.65;;;;;;;22.78;49.19;100501.03;5007649;28;20228;-70
2023/05/01 10:55:46;;;;;;;0.50;0.50;;;;;;;22.53;48.63;100497.31;5005371;28;20201;-74
2023/05/01 10:58:13;;;;;;;0.60;0.60;;;;;;;22.13;49.11;100481.63;5008553;28;20296;-71
2023/05/01 11:00:41;;;;;;;0.60;0.60;;;;;;;22.16;49.45;100486.84;5008710;28;20259;-71
2023/05/01 11:03:36;;;;;;;0.60;0.60;;;;;;;22.75;48.43;100495.84;5008572;28;20315;-70
2023/05/01 11:06:06;;;;;;;0.50;0.50;;;;;;;22.91;46.96;100489.19;5001666;28;20201;-72
2023/05/01 11:08:36;;;;;;;0.52;0.52;;;;;;;23.17;47.48;100491.94;5007985;28;20208;-71
2023/05/01 11:11:40;;;;;;;0.60;0.60;;;;;;;23.00;47.06;100498.66;5007184;28;20725;-72
2023/05/01 11:14:09;;;;;;;1.75;1.40;;;;;;;23.22;47.33;100497.13;4996695;28;20235;-72
2023/05/01 11:16:45;;;;;;;0.60;0.60;;;;;;;23.39;47.13;100493.94;5007879;28;20212;-70
2023/05/01 11:19:51;;;;;;;0.60;0.60;;;;;;;23.25;44.73;100477.63;4962193;28;20291;-71
2023/05/01 11:22:19;;;;;;;0.80;0.80;;;;;;;23.07;44.90;100497.56;4950034;29;20218;-71
2023/05/01 11:24:47;;;;;;;0.50;0.50;;;;;;;22.88;45.87;100486.66;4941846;29;20215;-71
2023/05/01 11:27:15;;;;;;;0.57;0.57;;;;;;;22.85;45.90;100486.75;5006032;28;20900;-71
2023/05/01 11:29:45;;;;;;;1.10;1.10;;;;;;;23.09;45.16;100486.00;5008174;28;20332;-69